createdAt,value
2019-05-01T00:02:02.874Z,11.65
2019-05-01T00:04:39.039Z,11.69
2019-05-01T00:07:24.171Z,11.72
2019-05-01T00:09:55.622Z,11.68
2019-05-01T00:12:27.214Z,11.72
2019-05-01T00:14:58.577Z,11.71
2019-05-01T00:17:29.945Z,11.64
2019-05-01T00:20:01.358Z,11.62
2019-05-01T00:22:32.766Z,11.48
2019-05-01T00:25:04.623Z,11.48
2019-05-01T00:27:35.959Z,11.45
2019-05-01T00:30:08.935Z,11.51
2019-05-01T00:32:40.288Z,11.45
2019-05-01T00:35:11.255Z,11.48
2019-05-01T00:37:42.498Z,11.40
2019-05-01T00:40:13.874Z,11.41
2019-05-01T00:42:45.309Z,11.39
2019-05-01T00:45:16.716Z,11.46
2019-05-01T00:47:48.178Z,11.42
2019-05-01T00:50:19.500Z,11.39
2019-05-01T00:52:50.938Z,11.37
2019-05-01T00:55:39.300Z,11.36
2019-05-01T00:58:22.425Z,11.35
2019-05-01T01:01:11.518Z,11.32
2019-05-01T01:03:43.105Z,11.32
2019-05-01T01:06:14.470Z,11.23
2019-05-01T01:08:45.807Z,11.29
2019-05-01T01:11:17.118Z,11.32
2019-05-01T01:13:48.627Z,11.34
2019-05-01T01:16:20.031Z,11.39
2019-05-01T01:18:50.862Z,11.40
2019-05-01T01:21:21.955Z,11.40
2019-05-01T01:23:53.245Z,11.36
2019-05-01T01:26:24.807Z,11.42
2019-05-01T01:28:56.231Z,11.47
2019-05-01T01:31:27.721Z,11.43
2019-05-01T01:33:59.088Z,11.40
2019-05-01T01:36:30.618Z,11.34
2019-05-01T01:39:02.064Z,11.24
2019-05-01T01:41:35.695Z,11.30
2019-05-01T01:44:08.744Z,11.17
2019-05-01T01:46:41.619Z,11.22
2019-05-01T01:49:12.979Z,11.22
2019-05-01T01:51:44.413Z,11.26
2019-05-01T01:54:15.783Z,11.26
2019-05-01T01:56:47.292Z,11.20
2019-05-01T01:59:18.691Z,11.22
2019-05-01T02:01:54.354Z,11.29
2019-05-01T02:04:27.286Z,11.21
2019-05-01T02:06:58.681Z,11.19
2019-05-01T02:09:30.090Z,11.20
2019-05-01T02:12:00.920Z,11.22
2019-05-01T02:14:32.046Z,11.16
2019-05-01T02:17:02.847Z,11.12
2019-05-01T02:19:33.923Z,11.08
2019-05-01T02:22:06.434Z,11.13
2019-05-01T02:24:38.035Z,11.17
2019-05-01T02:27:10.974Z,11.15
2019-05-01T02:29:45.624Z,11.22
2019-05-01T02:32:16.996Z,11.29
2019-05-01T02:34:48.430Z,11.26
2019-05-01T02:37:20.227Z,11.22
2019-05-01T02:39:50.940Z,11.17
2019-05-01T02:42:22.166Z,11.07
2019-05-01T02:44:53.053Z,11.08
2019-05-01T02:47:26.459Z,10.96
2019-05-01T02:50:01.042Z,11.03
2019-05-01T02:52:34.354Z,11.10
2019-05-01T02:55:09.127Z,11.05
2019-05-01T02:57:40.500Z,10.98
2019-05-01T03:00:12.087Z,10.99
2019-05-01T03:02:43.442Z,11.01
2019-05-01T03:05:14.815Z,11.01
2019-05-01T03:07:46.270Z,11.02
2019-05-01T03:10:18.720Z,11.01
2019-05-01T03:12:50.069Z,11.11
2019-05-01T03:15:21.538Z,11.07
2019-05-01T03:17:54.545Z,11.16
2019-05-01T03:20:36.529Z,11.20
2019-05-01T03:23:18.367Z,11.20
2019-05-01T03:25:49.776Z,11.18
2019-05-01T03:28:21.788Z,11.12
2019-05-01T03:30:53.166Z,11.16
2019-05-01T03:33:26.228Z,11.20
2019-05-01T03:35:57.557Z,11.21
2019-05-01T03:38:28.960Z,11.24
2019-05-01T03:41:00.392Z,11.21
2019-05-01T03:43:32.073Z,11.19
2019-05-01T03:46:03.554Z,11.21
2019-05-01T03:48:34.939Z,11.23
2019-05-01T03:51:06.923Z,11.26
2019-05-01T03:53:38.341Z,11.27
2019-05-01T03:56:09.688Z,11.32
2019-05-01T03:58:41.137Z,11.37
2019-05-01T04:01:17.415Z,11.42
2019-05-01T04:03:50.456Z,11.42
2019-05-01T04:06:21.817Z,11.40
2019-05-01T04:08:53.353Z,11.47
2019-05-01T04:11:24.243Z,11.38
2019-05-01T04:13:55.379Z,11.38
2019-05-01T04:16:26.875Z,11.46
2019-05-01T04:18:57.685Z,11.42
2019-05-01T04:21:30.658Z,11.39
2019-05-01T04:24:02.021Z,11.51
2019-05-01T04:26:33.468Z,11.48
2019-05-01T04:29:06.551Z,11.47
2019-05-01T04:31:39.567Z,11.48
2019-05-01T04:34:15.455Z,11.56
2019-05-01T04:36:49.482Z,11.57
2019-05-01T04:39:20.863Z,11.60
2019-05-01T04:41:52.443Z,11.60
2019-05-01T04:44:23.317Z,11.63
2019-05-01T04:46:54.398Z,11.60
2019-05-01T04:49:25.909Z,11.68
2019-05-01T04:51:57.546Z,11.72
2019-05-01T04:54:29.945Z,11.74
2019-05-01T04:57:01.372Z,11.80
2019-05-01T04:59:35.795Z,11.87
2019-05-01T05:02:14.204Z,11.81
2019-05-01T05:04:59.388Z,11.91
2019-05-01T05:07:37.618Z,11.94
2019-05-01T05:10:35.645Z,12.02
2019-05-01T05:13:12.500Z,12.05
2019-05-01T05:22:06.244Z,12.18
2019-05-01T05:24:37.763Z,12.21
2019-05-01T05:27:09.203Z,12.25
2019-05-01T05:29:40.759Z,12.31
2019-05-01T05:32:12.195Z,12.40
2019-05-01T05:34:45.327Z,12.40
2019-05-01T05:37:22.614Z,12.42
2019-05-01T05:39:54.509Z,12.52
2019-05-01T05:42:26.095Z,12.55
2019-05-01T05:44:59.583Z,12.59
2019-05-01T05:47:34.110Z,12.64
2019-05-01T05:50:07.432Z,12.74
2019-05-01T05:52:40.487Z,12.82
2019-05-01T05:55:16.307Z,12.85
2019-05-01T05:57:58.324Z,12.92
2019-05-01T06:00:41.380Z,12.99
2019-05-01T06:03:33.359Z,13.04
2019-05-01T06:06:14.636Z,13.09
2019-05-01T06:16:52.196Z,13.23
2019-05-01T06:39:42.998Z,13.65
2019-05-01T06:42:21.928Z,13.71
2019-05-01T06:45:22.758Z,13.79
2019-05-01T06:47:57.575Z,13.85
2019-05-01T06:50:57.471Z,13.90
2019-05-01T07:20:06.317Z,14.54
2019-05-01T07:28:19.976Z,14.71
2019-05-01T07:31:09.401Z,14.84
2019-05-01T07:34:25.837Z,14.86
2019-05-01T07:37:05.380Z,14.97
2019-05-01T07:39:36.771Z,15.05
2019-05-01T07:42:25.670Z,15.13
2019-05-01T07:45:15.610Z,15.08
2019-05-01T07:47:48.700Z,15.18
2019-05-01T07:50:24.227Z,15.31
2019-05-01T07:52:53.991Z,15.28
2019-05-01T07:55:37.429Z,15.29
2019-05-01T07:58:15.979Z,15.36
2019-05-01T08:00:57.979Z,15.36
2019-05-01T08:03:29.405Z,15.45
2019-05-01T08:06:00.779Z,15.60
2019-05-01T08:08:33.634Z,15.69
2019-05-01T08:11:09.883Z,15.74
2019-05-01T08:13:38.143Z,15.82
2019-05-01T08:16:09.576Z,15.85
2019-05-01T08:18:41.850Z,16.00
2019-05-01T08:21:21.114Z,16.16
2019-05-01T08:23:53.803Z,16.36
2019-05-01T08:26:25.253Z,16.42
2019-05-01T08:29:09.507Z,16.54
2019-05-01T08:31:54.055Z,16.70
2019-05-01T08:34:29.664Z,16.83
2019-05-01T08:37:00.266Z,16.95
2019-05-01T08:39:32.833Z,17.00
2019-05-01T08:42:06.991Z,17.09
2019-05-01T08:44:59.968Z,17.09
2019-05-01T08:47:34.247Z,17.13
2019-05-01T08:50:14.437Z,17.21
2019-05-01T08:52:47.359Z,17.25
2019-05-01T08:55:20.036Z,17.14
2019-05-01T09:05:27.638Z,17.41
2019-05-01T09:07:46.817Z,17.41
2019-05-01T09:17:14.493Z,17.70
2019-05-01T09:23:39.780Z,17.85
2019-05-01T09:33:04.686Z,18.22
2019-05-01T09:35:40.439Z,18.29
2019-05-01T09:38:13.266Z,18.32
2019-05-01T09:40:48.779Z,18.39
2019-05-01T09:43:26.031Z,18.46
2019-05-01T09:45:59.092Z,18.50
2019-05-01T09:48:32.132Z,18.45
2019-05-01T09:51:05.465Z,18.46
2019-05-01T09:53:41.059Z,18.50
2019-05-01T09:56:14.102Z,18.49
2019-05-01T09:58:45.439Z,18.48
2019-05-01T10:01:16.829Z,18.48
2019-05-01T10:03:49.454Z,18.53
2019-05-01T10:06:21.397Z,18.57
2019-05-01T10:08:52.797Z,18.67
2019-05-01T10:11:24.243Z,18.73
2019-05-01T10:13:58.542Z,18.86
2019-05-01T10:16:27.868Z,18.97
2019-05-01T10:18:58.706Z,19.13
2019-05-01T10:21:29.823Z,19.19
2019-05-01T10:24:01.333Z,19.39
2019-05-01T10:26:33.677Z,19.45
2019-05-01T10:29:09.105Z,19.48
2019-05-01T10:32:00.261Z,19.50
2019-05-01T10:34:33.199Z,19.54
2019-05-01T10:37:04.612Z,19.50
2019-05-01T10:39:37.611Z,19.52
2019-05-01T10:42:09.012Z,19.52
2019-05-01T10:44:39.755Z,19.56
2019-05-01T10:47:10.866Z,19.50
2019-05-01T10:49:41.703Z,19.60
2019-05-01T10:52:14.269Z,19.59
2019-05-01T10:54:49.446Z,19.75
2019-05-01T10:57:22.545Z,19.81
2019-05-01T10:59:54.023Z,19.86
2019-05-01T11:02:24.827Z,19.86
2019-05-01T11:04:55.930Z,19.85
2019-05-01T11:07:27.346Z,19.93
2019-05-01T11:09:58.123Z,20.01
2019-05-01T11:12:29.226Z,19.96
2019-05-01T11:15:00.660Z,19.96
2019-05-01T11:17:33.153Z,20.00
2019-05-01T11:20:06.677Z,19.99
2019-05-01T11:22:38.226Z,20.04
2019-05-01T11:25:09.145Z,20.08
2019-05-01T11:27:40.194Z,20.02
2019-05-01T11:30:11.574Z,20.09
2019-05-01T11:32:43.997Z,20.15
2019-05-01T11:35:32.895Z,20.13
2019-05-01T11:38:23.095Z,20.22
2019-05-01T11:40:55.975Z,20.23
2019-05-01T11:43:27.268Z,20.33
2019-05-01T11:45:58.567Z,20.29
2019-05-01T11:48:31.746Z,20.26
2019-05-01T11:51:03.126Z,20.25
2019-05-01T11:53:34.528Z,20.29
2019-05-01T11:56:05.266Z,20.33
2019-05-01T11:58:36.361Z,20.35
2019-05-01T12:01:10.995Z,20.45
2019-05-01T12:03:42.626Z,20.56
2019-05-01T12:06:22.741Z,20.55
2019-05-01T12:08:47.477Z,20.59
2019-05-01T12:11:19.782Z,20.57
2019-05-01T12:13:50.959Z,20.50
2019-05-01T12:16:23.830Z,20.57
2019-05-01T12:18:55.248Z,20.67
2019-05-01T12:21:26.079Z,20.75
2019-05-01T12:23:57.149Z,20.69
2019-05-01T12:26:29.401Z,20.81
2019-05-01T12:29:00.702Z,20.84
2019-05-01T12:31:31.874Z,20.87
2019-05-01T12:34:03.255Z,20.88
2019-05-01T12:36:36.348Z,20.85
2019-05-01T12:39:10.757Z,20.82
2019-05-01T12:41:47.600Z,20.83
2019-05-01T12:44:21.492Z,20.84
2019-05-01T12:46:54.414Z,20.83
2019-05-01T12:49:25.592Z,20.82
2019-05-01T12:52:09.856Z,20.85
2019-05-01T12:54:33.061Z,20.87
2019-05-01T12:57:04.423Z,20.92
2019-05-01T12:59:35.657Z,20.93
2019-05-01T13:02:07.116Z,20.95
2019-05-01T13:04:38.411Z,21.13
2019-05-01T13:07:09.136Z,21.23
2019-05-01T13:09:40.212Z,21.34
2019-05-01T13:12:11.046Z,21.44
2019-05-01T13:14:42.169Z,21.43
2019-05-01T13:17:13.696Z,21.55
2019-05-01T13:19:45.027Z,21.53
2019-05-01T13:22:16.365Z,21.57
2019-05-01T13:24:50.028Z,21.56
2019-05-01T13:27:22.815Z,21.44
2019-05-01T13:29:56.018Z,21.39
2019-05-01T13:32:28.812Z,21.37
2019-05-01T13:35:00.181Z,21.33
2019-05-01T13:37:31.351Z,21.51
2019-05-01T13:40:02.631Z,21.56
2019-05-01T13:42:33.916Z,21.61
2019-05-01T13:45:07.314Z,21.68
2019-05-01T13:47:38.778Z,21.74
2019-05-01T13:50:12.434Z,21.75
2019-05-01T13:52:43.938Z,21.69
2019-05-01T13:55:16.143Z,21.76
2019-05-01T13:57:48.523Z,21.79
2019-05-01T14:00:19.948Z,21.79
2019-05-01T14:02:51.443Z,21.76
2019-05-01T14:05:23.149Z,21.75
2019-05-01T14:07:54.226Z,21.69
2019-05-01T14:10:25.439Z,21.37
2019-05-01T14:12:56.078Z,21.25
2019-05-01T14:15:28.752Z,21.06
2019-05-01T14:17:59.985Z,21.02
2019-05-01T14:20:50.955Z,20.90
2019-05-01T14:23:23.869Z,20.80
2019-05-01T14:26:08.431Z,20.73
2019-05-01T14:28:39.650Z,20.67
2019-05-01T14:31:11.020Z,20.58
2019-05-01T14:33:41.760Z,20.57
2019-05-01T14:36:12.888Z,20.47
2019-05-01T14:38:44.169Z,20.47
2019-05-01T14:41:15.456Z,20.43
2019-05-01T14:43:46.763Z,20.41
2019-05-01T14:46:17.990Z,20.40
2019-05-01T14:48:49.395Z,20.40
2019-05-01T14:51:21.760Z,20.35
2019-05-01T14:53:54.432Z,20.31
2019-05-01T14:56:28.440Z,20.32
2019-05-01T14:58:59.323Z,20.28
2019-05-01T15:01:31.026Z,20.16
2019-05-01T15:04:04.842Z,20.22
2019-05-01T15:06:35.424Z,20.22
2019-05-01T15:09:08.907Z,20.20
2019-05-01T15:11:44.548Z,20.26
2019-05-01T15:14:33.852Z,20.27
2019-05-01T15:17:12.548Z,20.31
2019-05-01T15:19:45.674Z,20.35
2019-05-01T15:22:17.082Z,20.36
2019-05-01T15:24:47.810Z,20.39
2019-05-01T15:27:18.912Z,20.27
2019-05-01T15:29:51.248Z,20.38
2019-05-01T15:32:22.166Z,20.64
2019-05-01T15:34:53.332Z,20.77
2019-05-01T15:37:24.787Z,20.95
2019-05-01T15:39:56.990Z,21.06
2019-05-01T15:42:36.052Z,20.76
2019-05-01T15:45:07.450Z,20.82
2019-05-01T15:47:38.762Z,20.66
2019-05-01T15:50:09.997Z,20.62
2019-05-01T15:52:41.347Z,20.37
2019-05-01T15:55:13.217Z,20.15
2019-05-01T15:57:44.576Z,20.12
2019-05-01T16:00:17.439Z,20.04
2019-05-01T16:02:48.791Z,19.91
2019-05-01T16:05:19.963Z,19.95
2019-05-01T16:07:52.376Z,19.84
2019-05-01T16:10:25.303Z,19.79
2019-05-01T16:12:58.159Z,19.78
2019-05-01T16:15:33.577Z,19.75
2019-05-01T16:18:06.207Z,19.69
2019-05-01T16:20:37.377Z,19.56
2019-05-01T16:23:09.339Z,19.54
2019-05-01T16:25:40.808Z,19.51
2019-05-01T16:28:12.173Z,19.36
2019-05-01T16:30:43.459Z,19.29
2019-05-01T16:33:15.743Z,19.24
2019-05-01T16:35:47.033Z,19.28
2019-05-01T16:38:23.471Z,19.27
2019-05-01T16:40:57.579Z,19.18
2019-05-01T16:43:28.922Z,19.13
2019-05-01T16:46:00.218Z,18.99
2019-05-01T16:48:31.571Z,18.90
2019-05-01T16:51:02.832Z,18.85
2019-05-01T16:53:34.243Z,18.76
2019-05-01T16:56:05.668Z,18.63
2019-05-01T16:58:37.010Z,18.51
2019-05-01T17:01:09.317Z,18.37
2019-05-01T17:03:57.172Z,18.11
2019-05-01T17:06:35.603Z,18.00
2019-05-01T17:09:26.137Z,17.92
2019-05-01T17:11:59.005Z,17.95
2019-05-01T17:14:30.814Z,17.82
2019-05-01T17:17:02.323Z,17.74
2019-05-01T17:19:32.943Z,17.65
2019-05-01T17:22:09.296Z,17.64
2019-05-01T17:24:38.558Z,17.78
2019-05-01T17:27:09.849Z,17.84
2019-05-01T17:29:41.133Z,17.89
2019-05-01T17:32:13.874Z,18.05
2019-05-01T17:34:45.172Z,18.15
2019-05-01T17:37:16.509Z,18.23
2019-05-01T17:39:48.083Z,18.24
2019-05-01T17:42:19.296Z,18.31
2019-05-01T17:44:50.661Z,18.35
2019-05-01T17:47:22.432Z,18.34
2019-05-01T17:49:54.882Z,18.34
2019-05-01T17:52:26.115Z,18.32
2019-05-01T17:54:57.269Z,18.34
2019-05-01T17:57:28.539Z,18.31
2019-05-01T18:00:01.261Z,18.25
2019-05-01T18:02:37.213Z,18.26
2019-05-01T18:05:10.132Z,18.21
2019-05-01T18:07:41.372Z,18.23
2019-05-01T18:10:12.615Z,18.20
2019-05-01T18:12:43.846Z,18.17
2019-05-01T18:15:15.112Z,18.18
2019-05-01T18:17:46.362Z,18.11
2019-05-01T18:20:17.591Z,18.05
2019-05-01T18:22:57.727Z,18.05
2019-05-01T18:25:34.917Z,17.98
2019-05-01T18:28:13.817Z,17.91
2019-05-01T18:30:45.560Z,17.88
2019-05-01T18:33:16.802Z,17.81
2019-05-01T18:35:49.238Z,17.78
2019-05-01T18:38:34.160Z,17.77
2019-05-01T18:41:09.979Z,17.82
2019-05-01T18:43:41.271Z,17.73
2019-05-01T18:46:12.654Z,17.62
2019-05-01T18:48:44.107Z,17.59
2019-05-01T18:51:16.547Z,17.59
2019-05-01T18:53:50.585Z,17.52
2019-05-01T18:56:21.806Z,17.52
2019-05-01T18:58:53.094Z,17.52
2019-05-01T19:01:24.318Z,17.42
2019-05-01T19:03:56.315Z,17.40
2019-05-01T19:06:40.143Z,17.39
2019-05-01T19:09:13.980Z,17.33
2019-05-01T19:11:37.474Z,17.30
2019-05-01T19:14:09.419Z,17.29
2019-05-01T19:16:45.401Z,17.28
2019-05-01T19:19:13.643Z,17.24
2019-05-01T19:21:46.533Z,17.19
2019-05-01T19:24:17.801Z,17.10
2019-05-01T19:26:49.063Z,17.12
2019-05-01T19:29:21.419Z,17.09
2019-05-01T19:31:53.494Z,17.05
2019-05-01T19:34:26.284Z,17.02
2019-05-01T19:36:59.219Z,16.96
2019-05-01T19:39:42.987Z,17.00
2019-05-01T19:42:03.491Z,16.90
2019-05-01T19:44:34.831Z,16.89
2019-05-01T19:47:07.808Z,16.77
2019-05-01T19:49:39.045Z,16.73
2019-05-01T19:52:10.324Z,16.58
2019-05-01T19:54:41.609Z,16.65
2019-05-01T19:57:12.788Z,16.56
2019-05-01T19:59:44.134Z,16.55
2019-05-01T20:02:20.173Z,16.59
2019-05-01T20:04:50.415Z,16.60
2019-05-01T20:07:22.772Z,16.58
2019-05-01T20:09:56.975Z,16.50
2019-05-01T20:12:29.676Z,16.37
2019-05-01T20:15:00.157Z,16.38
2019-05-01T20:17:31.557Z,16.41
2019-05-01T20:20:02.763Z,16.34
2019-05-01T20:22:34.490Z,16.34
2019-05-01T20:25:06.173Z,16.39
2019-05-01T20:27:39.536Z,16.33
2019-05-01T20:30:10.546Z,16.32
2019-05-01T20:32:41.796Z,16.34
2019-05-01T20:35:13.006Z,16.29
2019-05-01T20:37:44.305Z,16.26
2019-05-01T20:40:15.508Z,16.26
2019-05-01T20:42:46.924Z,16.29
2019-05-01T20:45:19.681Z,16.26
2019-05-01T20:47:54.147Z,16.17
2019-05-01T20:50:23.941Z,16.21
2019-05-01T20:52:55.258Z,16.20
2019-05-01T20:55:26.428Z,16.17
2019-05-01T20:58:17.266Z,16.18
2019-05-01T21:00:53.590Z,16.18
2019-05-01T21:03:24.614Z,16.06
2019-05-01T21:06:12.695Z,16.10
2019-05-01T21:08:48.237Z,16.12
2019-05-01T21:11:24.168Z,16.08
2019-05-01T21:14:14.771Z,16.03
2019-05-01T21:16:32.958Z,16.04
2019-05-01T21:19:03.689Z,16.06
2019-05-01T21:21:35.547Z,16.01
2019-05-01T21:24:06.837Z,15.93
2019-05-01T21:26:38.531Z,15.86
2019-05-01T21:29:09.789Z,15.85
2019-05-01T21:31:41.048Z,15.86
2019-05-01T21:34:14.362Z,15.86
2019-05-01T21:36:47.472Z,15.83
2019-05-01T21:39:22.160Z,15.82
2019-05-01T21:41:53.368Z,15.84
2019-05-01T21:44:24.779Z,15.79
2019-05-01T21:46:56.039Z,15.84
2019-05-01T21:49:28.871Z,15.85
2019-05-01T21:52:00.165Z,15.87
2019-05-01T21:54:31.633Z,15.87
2019-05-01T21:57:02.881Z,15.83
2019-05-01T21:59:35.303Z,15.75
2019-05-01T22:02:10.127Z,15.69
2019-05-01T22:04:39.587Z,15.64
2019-05-01T22:07:11.042Z,15.53
2019-05-01T22:09:45.773Z,15.52
2019-05-01T22:12:15.311Z,15.50
2019-05-01T22:14:50.976Z,15.36
2019-05-01T22:17:33.493Z,15.38
2019-05-01T22:20:06.320Z,15.34
2019-05-01T22:22:43.910Z,15.36
2019-05-01T22:25:13.562Z,15.34
2019-05-01T22:27:46.390Z,15.22
2019-05-01T22:30:28.129Z,15.19
2019-05-01T22:32:59.944Z,15.23
2019-05-01T22:35:32.564Z,15.18
2019-05-01T22:38:05.294Z,15.19
2019-05-01T22:40:50.371Z,15.22
2019-05-01T22:43:21.702Z,15.23
2019-05-01T22:45:56.186Z,15.22
2019-05-01T22:48:25.837Z,15.20
2019-05-01T22:50:58.625Z,15.14
2019-05-01T22:53:30.835Z,15.19
2019-05-01T22:56:03.909Z,15.18
2019-05-01T22:58:35.013Z,15.17
2019-05-01T23:01:07.272Z,15.17
2019-05-01T23:03:52.024Z,15.13
2019-05-01T23:06:23.268Z,15.07
2019-05-01T23:08:54.527Z,15.05
2019-05-01T23:11:27.361Z,14.97
2019-05-01T23:13:58.563Z,14.98
2019-05-01T23:16:31.424Z,14.94
2019-05-01T23:19:02.675Z,14.97
2019-05-01T23:21:33.986Z,14.90
2019-05-01T23:24:06.095Z,14.91
2019-05-01T23:26:37.355Z,14.97
2019-05-01T23:29:08.570Z,14.88
2019-05-01T23:31:39.871Z,14.85
2019-05-01T23:34:11.174Z,14.76
2019-05-01T23:36:42.450Z,14.72
2019-05-01T23:39:14.789Z,14.69
2019-05-01T23:41:47.113Z,14.61
2019-05-01T23:44:18.531Z,14.63
2019-05-01T23:46:49.805Z,14.57
2019-05-01T23:49:21.053Z,14.59
2019-05-01T23:51:52.246Z,14.54
2019-05-01T23:54:24.576Z,14.54
2019-05-01T23:56:55.851Z,14.47
2019-05-01T23:59:27.076Z,14.50
